| time (UTC) | temp F | wind direction | speed MPH | gust MPH | rain 1hr in | rain 24hr in | rain mn in | humidity % | barometer mb |
| 20260510073040 | 57 | 145 | 0.0 | 0.0 | 0.51 | 2.05 | 0.41 | 96 | 1015.4 |
| 20260510072542 | 57 | 145 | 0.0 | 0.0 | 0.47 | 1.97 | 0.39 | 96 | 1015.2 |
| 20260510072034 | 57 | 145 | 0.0 | 0.0 | 0.47 | 1.93 | 0.39 | 96 | 1015.1 |
| 20260510071537 | 57 | 145 | 0.0 | 0.0 | 0.51 | 1.93 | 0.39 | 96 | 1015.1 |
| 20260510071035 | 57 | 145 | 0.0 | 0.0 | 0.51 | 1.89 | 0.38 | 96 | 1015.1 |
| 20260510070600 | 57 | 145 | 0.0 | 0.0 | 0.47 | 1.81 | 0.36 | 96 | 1015.1 |
| 20260510070059 | 57 | 145 | 0.0 | 0.0 | 0.51 | 1.81 | 0.36 | 96 | 1015.0 |
| 20260510065539 | 57 | 145 | 0.0 | 0.0 | 0.55 | 1.77 | 0.35 | 96 | 1015.0 |
| 20260510065058 | 57 | 145 | 0.0 | 0.0 | 0.63 | 1.77 | 0.35 | 96 | 1015.0 |
| 20260510064534 | 57 | 144 | 0.0 | 7.0 | 0.59 | 1.69 | 0.34 | 95 | 1015.1 |
| 20260510064040 | 57 | 144 | 0.0 | 9.0 | 0.59 | 1.61 | 0.32 | 95 | 1015.0 |
| 20260510063547 | 57 | 139 | 3.0 | 8.0 | 0.55 | 1.54 | 0.31 | 95 | 1014.9 |
| 20260510063038 | 57 | 65 | 0.0 | 4.0 | 0.59 | 1.54 | 0.31 | 95 | 1014.7 |
| 20260510062541 | 57 | 348 | 1.0 | 4.0 | 0.55 | 1.50 | 0.30 | 95 | 1014.7 |
| 20260510062033 | 57 | 343 | 0.0 | 0.0 | 0.55 | 1.46 | 0.29 | 95 | 1014.8 |
| 20260510061555 | 57 | 343 | 0.0 | 3.0 | 0.51 | 1.42 | 0.28 | 95 | 1014.7 |
| 20260510061105 | 57 | 343 | 0.0 | 6.0 | 0.51 | 1.38 | 0.28 | 95 | 1014.7 |
| 20260510060550 | 57 | 343 | 3.0 | 6.0 | 0.51 | 1.34 | 0.27 | 95 | 1014.8 |
| 20260510060040 | 57 | 322 | 0.0 | 0.0 | 0.51 | 1.30 | 0.26 | 95 | 1014.8 |
| 20260510055544 | 57 | 139 | 0.0 | 0.0 | 0.47 | 1.22 | 0.24 | 95 | 1015.1 |
| 20260510055036 | 57 | 139 | 0.0 | 5.0 | 0.47 | 1.14 | 0.23 | 94 | 1015.1 |
| 20260510054541 | 57 | 139 | 0.0 | 5.0 | 0.51 | 1.10 | 0.22 | 94 | 1015.2 |
| 20260510054032 | 57 | 154 | 1.0 | 6.0 | 0.51 | 1.02 | 0.20 | 94 | 1015.2 |
| 20260510053535 | 57 | 141 | 0.0 | 0.0 | 0.59 | 0.98 | 0.20 | 93 | 1015.0 |
| 20260510053047 | 57 | 141 | 0.0 | 0.0 | 0.59 | 0.94 | 0.19 | 93 | 1014.9 |
| 20260510052550 | 58 | 141 | 0.0 | 0.0 | 0.59 | 0.91 | 0.19 | 92 | 1014.9 |
| 20260510052036 | 58 | 101 | 0.0 | 9.0 | 0.63 | 0.91 | 0.18 | 91 | 1014.8 |
| 20260510051542 | 58 | 41 | 2.0 | 10.0 | 0.71 | 0.91 | 0.18 | 91 | 1014.7 |
| 20260510051101 | 58 | 314 | 5.0 | 12.0 | 0.67 | 0.87 | 0.17 | 91 | 1014.7 |
| 20260510050604 | 58 | 330 | 8.0 | 12.0 | 0.67 | 0.83 | 0.17 | 92 | 1014.6 |
| 20260510045531 | 57 | 327 | 6.0 | 11.0 | 0.63 | 0.75 | 0.15 | 92 | 1014.9 |
| 20260510045041 | 57 | 330 | 6.0 | 10.0 | 0.59 | 0.67 | 0.13 | 92 | 1015.0 |
| 20260510044546 | 58 | 326 | 4.0 | 8.0 | 0.51 | 0.59 | 0.12 | 92 | 1015.1 |
| 20260510044035 | 58 | 310 | 1.0 | 3.0 | 0.43 | 0.51 | 0.10 | 92 | 1015.2 |
| 20260510043537 | 58 | 308 | 0.0 | 0.0 | 0.31 | 0.39 | 0.08 | 91 | 1015.4 |
| 20260510043058 | 58 | 308 | 0.0 | 0.0 | 0.28 | 0.35 | 0.07 | 91 | 1015.4 |
| 20260510042532 | 58 | 308 | 0.0 | 4.0 | 0.24 | 0.31 | 0.06 | 90 | 1015.3 |
| 20260510042038 | 58 | 308 | 2.0 | 6.0 | 0.20 | 0.28 | 0.06 | 90 | 1015.3 |
| 20260510041542 | 58 | 302 | 0.0 | 0.0 | 0.12 | 0.20 | 0.04 | 89 | 1015.3 |
| 20260510041035 | 58 | 300 | 0.0 | 4.0 | 0.12 | 0.20 | 0.04 | 88 | 1015.4 |
| 20260510040538 | 58 | 252 | 0.0 | 4.0 | 0.12 | 0.16 | 0.03 | 88 | 1015.3 |
| 20260510040049 | 59 | 252 | 2.0 | 4.0 | 0.08 | 0.12 | 0.02 | 87 | 1015.1 |
| 20260510035552 | 59 | 276 | 2.0 | 6.0 | 0.12 | 0.12 | 0.02 | 86 | 1014.9 |
| 20260510035107 | 59 | 285 | 3.0 | 9.0 | 0.08 | 0.08 | 0.02 | 86 | 1014.7 |
| 20260510034548 | 59 | 256 | 4.0 | 9.0 | 0.08 | 0.08 | 0.02 | 85 | 1014.7 |
| 20260510034036 | 59 | 258 | 1.0 | 5.0 | 0.08 | 0.08 | 0.02 | 83 | 1014.6 |
| 20260510033540 | 60 | 354 | 0.0 | 5.0 | 0.08 | 0.08 | 0.02 | 82 | 1014.6 |
| 20260510033032 | 60 | 359 | 0.0 | 9.0 | 0.08 | 0.08 | 0.02 | 82 | 1014.6 |
| 20260510032537 | 60 | 10 | 5.0 | 9.0 | 0.08 | 0.08 | 0.02 | 83 | 1014.6 |
| 20260510032046 | 59 | 354 | 5.0 | 8.0 | 0.08 | 0.08 | 0.02 | 83 | 1014.5 |
| 20260510031549 | 60 | 346 | 0.0 | 5.0 | 0.08 | 0.08 | 0.02 | 84 | 1014.5 |
| 20260510031107 | 60 | 335 | 0.0 | 0.0 | 0.08 | 0.08 | 0.02 | 82 | 1014.6 |
| 20260510030537 | 60 | 335 | 0.0 | 0.0 | 0.04 | 0.04 | 0.01 | 82 | 1014.5 |
| 20260510030049 | 60 | 335 | 0.0 | 0.0 | 0.04 | 0.04 | 0.01 | 80 | 1014.5 |
| 20260510025533 | 60 | 343 | 0.0 | 9.0 | 0.00 | 0.00 | 0.00 | 79 | 1014.5 |
| 20260510025044 | 60 | 354 | 0.0 | 9.0 | 0.00 | 0.00 | 0.00 | 78 | 1014.7 |
| 20260510024609 | 60 | 317 | 0.0 | 0.0 | 0.00 | 0.00 | 0.00 | 80 | 1014.5 |
| 20260510024106 | 61 | 317 | 0.0 | 0.0 | 0.00 | 0.00 | 0.00 | 79 | 1014.2 |
| 20260510023610 | 61 | 317 | 0.0 | 0.0 | 0.00 | 0.00 | 0.00 | 78 | 1014.2 |
| 20260510023034 | 61 | 317 | 0.0 | 0.0 | 0.00 | 0.00 | 0.00 | 77 | 1014.1 |
| 20260510022541 | 61 | 317 | 0.0 | 0.0 | 0.00 | 0.00 | 0.00 | 78 | 1014.0 |
| 20260510022058 | 61 | 317 | 0.0 | 0.0 | 0.00 | 0.00 | 0.00 | 77 | 1014.0 |
| 20260510021532 | 60 | 317 | 0.0 | 0.0 | 0.00 | 0.00 | 0.00 | 76 | 1014.0 |
| 20260510021044 | 60 | 317 | 0.0 | 0.0 | 0.00 | 0.00 | 0.00 | 78 | 1014.0 |
| 20260510020549 | 60 | 317 | 0.0 | 0.0 | 0.00 | 0.00 | 0.00 | 78 | 1014.1 |
| 20260510020044 | 60 | 317 | 0.0 | 0.0 | 0.00 | 0.00 | 0.00 | 77 | 1014.1 |
| 20260510015608 | 60 | 317 | 0.0 | 0.0 | 0.00 | 0.00 | 0.00 | 76 | 1014.2 |
| 20260510015033 | 60 | 317 | 0.0 | 0.0 | 0.00 | 0.00 | 0.00 | 77 | 1014.2 |
| 20260510014538 | 60 | 317 | 0.0 | 0.0 | 0.00 | 0.00 | 0.00 | 76 | 1014.3 |
| 20260510014058 | 60 | 317 | 0.0 | 0.0 | 0.00 | 0.00 | 0.00 | 76 | 1014.4 |
| 20260510013535 | 60 | 317 | 0.0 | 0.0 | 0.00 | 0.00 | 0.00 | 75 | 1014.4 |
| 20260510013047 | 61 | 317 | 0.0 | 0.0 | 0.00 | 0.00 | 0.00 | 75 | 1014.5 |
| 20260510012609 | 61 | 317 | 0.0 | 0.0 | 0.00 | 0.00 | 0.00 | 75 | 1014.6 |
| 20260510012038 | 61 | 317 | 0.0 | 0.0 | 0.00 | 0.00 | 0.00 | 75 | 1014.6 |
| 20260510011543 | 61 | 317 | 0.0 | 0.0 | 0.00 | 0.00 | 0.00 | 74 | 1014.7 |
| 20260510011033 | 61 | 317 | 0.0 | 0.0 | 0.00 | 0.00 | 0.00 | 75 | 1014.7 |
| 20260510010537 | 61 | 317 | 0.0 | 0.0 | 0.00 | 0.00 | 0.00 | 75 | 1014.8 |
| 20260510010040 | 61 | 317 | 0.0 | 0.0 | 0.00 | 0.00 | 0.00 | 76 | 1014.8 |
| 20260510005544 | 61 | 317 | 0.0 | 0.0 | 0.00 | 0.00 | 0.00 | 76 | 1014.8 |
| 20260510005034 | 61 | 317 | 0.0 | 0.0 | 0.00 | 0.00 | 0.00 | 76 | 1014.9 |
| 20260510004539 | 61 | 317 | 0.0 | 0.0 | 0.00 | 0.00 | 0.00 | 75 | 1014.9 |
| 20260510004038 | 61 | 317 | 0.0 | 0.0 | 0.00 | 0.00 | 0.00 | 74 | 1015.0 |
| 20260510003542 | 61 | 317 | 0.0 | 0.0 | 0.00 | 0.00 | 0.00 | 73 | 1015.1 |
| 20260510003036 | 62 | 317 | 0.0 | 0.0 | 0.00 | 0.00 | 0.00 | 71 | 1015.1 |
| 20260510002600 | 62 | 317 | 0.0 | 0.0 | 0.00 | 0.00 | 0.00 | 72 | 1015.2 |
| 20260510002051 | 62 | 317 | 0.0 | 0.0 | 0.00 | 0.00 | 0.00 | 70 | 1015.1 |
| 20260510001541 | 62 | 317 | 0.0 | 0.0 | 0.00 | 0.00 | 0.00 | 70 | 1015.1 |
| 20260510001033 | 62 | 317 | 0.0 | 0.0 | 0.00 | 0.00 | 0.00 | 71 | 1015.1 |
| 20260510000557 | 61 | 317 | 0.0 | 0.0 | 0.00 | 0.00 | 0.00 | 74 | 1015.3 |
| 20260510000046 | 60 | 316 | 0.0 | 0.0 | 0.00 | 0.00 | 0.00 | 75 | 1015.5 |
| 20260509235551 | 60 | 317 | 0.0 | 0.0 | 0.00 | 0.00 | 0.00 | 76 | 1015.5 |
| 20260509235040 | 60 | 317 | 0.0 | 0.0 | 0.00 | 0.00 | 0.00 | 77 | 1015.6 |
| 20260509234545 | 60 | 317 | 0.0 | 0.0 | 0.00 | 0.00 | 0.00 | 77 | 1015.7 |
| 20260509234040 | 60 | 317 | 0.0 | 0.0 | 0.00 | 0.00 | 0.00 | 77 | 1015.6 |
| 20260509233603 | 61 | 317 | 0.0 | 0.0 | 0.00 | 0.00 | 0.00 | 76 | 1015.7 |
| 20260509233058 | 60 | 317 | 0.0 | 0.0 | 0.00 | 0.00 | 0.00 | 76 | 1015.7 |
| 20260509232534 | 60 | 317 | 0.0 | 0.0 | 0.00 | 0.00 | 0.00 | 77 | 1015.8 |
| 20260509232039 | 60 | 317 | 0.0 | 0.0 | 0.00 | 0.00 | 0.00 | 77 | 1015.8 |
| 20260509231542 | 61 | 317 | 0.0 | 0.0 | 0.00 | 0.00 | 0.00 | 76 | 1015.8 |
| 20260509231036 | 61 | 317 | 0.0 | 0.0 | 0.00 | 0.00 | 0.00 | 77 | 1015.8 |
| 20260509230539 | 60 | 317 | 0.0 | 0.0 | 0.00 | 0.00 | 0.00 | 78 | 1015.7 |
| 20260509230031 | 60 | 317 | 0.0 | 0.0 | 0.00 | 0.00 | 0.00 | 78 | 1015.6 |
| 20260509225535 | 61 | 317 | 0.0 | 0.0 | 0.00 | 0.00 | 0.00 | 77 | 1015.6 |
| 20260509225044 | 61 | 317 | 0.0 | 0.0 | 0.00 | 0.00 | 0.00 | 76 | 1015.6 |
| 20260509224547 | 61 | 317 | 0.0 | 0.0 | 0.00 | 0.00 | 0.00 | 75 | 1015.7 |
| 20260509224032 | 61 | 317 | 0.0 | 0.0 | 0.00 | 0.00 | 0.00 | 74 | 1015.8 |
| 20260509223535 | 62 | 317 | 0.0 | 0.0 | 0.00 | 0.00 | 0.00 | 74 | 1015.8 |
| 20260509223048 | 62 | 317 | 0.0 | 0.0 | 0.00 | 0.00 | 0.00 | 73 | 1015.8 |
| 20260509222551 | 62 | 317 | 0.0 | 0.0 | 0.00 | 0.00 | 0.00 | 73 | 1015.8 |
| 20260509222045 | 62 | 317 | 0.0 | 0.0 | 0.00 | 0.00 | 0.00 | 72 | 1015.8 |
| 20260509221609 | 61 | 317 | 0.0 | 0.0 | 0.00 | 0.00 | 0.00 | 73 | 1015.8 |
| 20260509221039 | 61 | 317 | 0.0 | 0.0 | 0.00 | 0.00 | 0.00 | 74 | 1015.9 |
| 20260509220544 | 62 | 317 | 0.0 | 0.0 | 0.00 | 0.00 | 0.00 | 73 | 1015.9 |
| 20260509220059 | 62 | 317 | 0.0 | 0.0 | 0.00 | 0.00 | 0.00 | 72 | 1015.8 |
| 20260509215534 | 61 | 317 | 0.0 | 0.0 | 0.00 | 0.00 | 0.00 | 74 | 1015.8 |
| 20260509215047 | 61 | 317 | 0.0 | 0.0 | 0.00 | 0.00 | 0.00 | 75 | 1015.8 |
| 20260509214612 | 61 | 317 | 0.0 | 0.0 | 0.00 | 0.00 | 0.00 | 76 | 1015.8 |
| 20260509214041 | 61 | 317 | 0.0 | 0.0 | 0.00 | 0.00 | 0.00 | 76 | 1015.9 |
| 20260509213547 | 61 | 317 | 0.0 | 0.0 | 0.00 | 0.00 | 0.00 | 76 | 1015.8 |
| 20260509213057 | 61 | 317 | 0.0 | 0.0 | 0.00 | 0.00 | 0.00 | 76 | 1015.8 |
| 20260509212533 | 62 | 317 | 0.0 | 0.0 | 0.00 | 0.00 | 0.00 | 74 | 1015.9 |
| 20260509212043 | 63 | 317 | 0.0 | 0.0 | 0.00 | 0.00 | 0.00 | 72 | 1015.9 |
| 20260509211550 | 63 | 317 | 0.0 | 0.0 | 0.00 | 0.00 | 0.00 | 71 | 1015.8 |
| 20260509211035 | 64 | 317 | 0.0 | 0.0 | 0.00 | 0.00 | 0.00 | 70 | 1015.9 |
| 20260509210559 | 64 | 317 | 0.0 | 0.0 | 0.00 | 0.00 | 0.00 | 69 | 1015.9 |
| 20260509210038 | 64 | 317 | 0.0 | 0.0 | 0.00 | 0.00 | 0.00 | 67 | 1015.9 |
| 20260509205604 | 64 | 317 | 0.0 | 0.0 | 0.00 | 0.00 | 0.00 | 68 | 1015.8 |
| 20260509205043 | 65 | 317 | 0.0 | 4.0 | 0.00 | 0.00 | 0.00 | 68 | 1015.8 |
| 20260509204544 | 65 | 316 | 0.0 | 6.0 | 0.00 | 0.00 | 0.00 | 68 | 1015.8 |
| 20260509204035 | 65 | 311 | 3.0 | 7.0 | 0.00 | 0.00 | 0.00 | 68 | 1015.8 |
| 20260509203539 | 65 | 332 | 3.0 | 8.0 | 0.00 | 0.00 | 0.00 | 68 | 1015.9 |
| 20260509203040 | 65 | 316 | 4.0 | 8.0 | 0.00 | 0.00 | 0.00 | 68 | 1015.8 |
| 20260509202545 | 65 | 319 | 5.0 | 9.0 | 0.00 | 0.00 | 0.00 | 68 | 1015.8 |
| 20260509202056 | 65 | 305 | 6.0 | 9.0 | 0.00 | 0.00 | 0.00 | 68 | 1015.8 |
| 20260509201533 | 65 | 328 | 5.0 | 9.0 | 0.00 | 0.00 | 0.00 | 67 | 1015.8 |
| 20260509201043 | 65 | 309 | 4.0 | 9.0 | 0.00 | 0.00 | 0.00 | 67 | 1015.8 |
| 20260509200549 | 65 | 316 | 3.0 | 8.0 | 0.00 | 0.00 | 0.00 | 67 | 1015.7 |
| 20260509200041 | 66 | 320 | 3.0 | 10.0 | 0.00 | 0.00 | 0.00 | 67 | 1015.6 |
| 20260509195543 | 66 | 321 | 6.0 | 10.0 | 0.00 | 0.00 | 0.00 | 67 | 1015.6 |
| 20260509195038 | 66 | 320 | 4.0 | 10.0 | 0.00 | 0.00 | 0.00 | 67 | 1015.6 |
| 20260509194543 | 66 | 339 | 2.0 | 10.0 | 0.00 | 0.00 | 0.00 | 67 | 1015.5 |
| 20260509194055 | 66 | 324 | 6.0 | 10.0 | 0.00 | 0.00 | 0.00 | 67 | 1015.4 |
| 20260509193531 | 66 | 323 | 5.0 | 13.0 | 0.00 | 0.00 | 0.00 | 67 | 1015.3 |
| 20260509193042 | 66 | 326 | 4.0 | 13.0 | 0.00 | 0.00 | 0.00 | 66 | 1015.2 |
| 20260509192545 | 66 | 329 | 5.0 | 9.0 | 0.00 | 0.00 | 0.00 | 66 | 1015.2 |
| 20260509192037 | 66 | 324 | 5.0 | 9.0 | 0.00 | 0.00 | 0.00 | 66 | 1015.1 |
| 20260509191542 | 66 | 339 | 6.0 | 9.0 | 0.00 | 0.00 | 0.00 | 67 | 1015.0 |
| 20260509191031 | 66 | 322 | 4.0 | 9.0 | 0.00 | 0.00 | 0.00 | 68 | 1015.0 |
| 20260509190537 | 66 | 317 | 6.0 | 9.0 | 0.00 | 0.00 | 0.00 | 68 | 1014.9 |
| 20260509190044 | 66 | 320 | 5.0 | 8.0 | 0.00 | 0.00 | 0.00 | 68 | 1014.9 |
| 20260509185559 | 66 | 324 | 4.0 | 8.0 | 0.00 | 0.00 | 0.00 | 68 | 1015.0 |
| 20260509185051 | 66 | 323 | 4.0 | 8.0 | 0.00 | 0.00 | 0.00 | 68 | 1014.9 |
| 20260509184555 | 66 | 317 | 3.0 | 8.0 | 0.00 | 0.00 | 0.00 | 68 | 1014.9 |
| 20260509184045 | 67 | 314 | 4.0 | 6.0 | 0.00 | 0.00 | 0.00 | 68 | 1014.9 |
| 20260509183548 | 67 | 327 | 3.0 | 6.0 | 0.00 | 0.00 | 0.00 | 68 | 1014.9 |
| 20260509183040 | 66 | 309 | 3.0 | 7.0 | 0.00 | 0.00 | 0.00 | 68 | 1014.8 |
| 20260509182545 | 66 | 321 | 3.0 | 6.0 | 0.00 | 0.00 | 0.00 | 69 | 1014.9 |
| 20260509182038 | 66 | 315 | 0.0 | 0.0 | 0.00 | 0.00 | 0.00 | 70 | 1014.9 |
| 20260509181543 | 66 | 315 | 0.0 | 0.0 | 0.00 | 0.00 | 0.00 | 68 | 1014.8 |
| 20260509181058 | 66 | 318 | 0.0 | 0.0 | 0.00 | 0.00 | 0.00 | 67 | 1014.9 |
| 20260509180541 | 67 | 319 | 0.0 | 0.0 | 0.00 | 0.00 | 0.00 | 66 | 1015.0 |
| 20260509180034 | 67 | 135 | 0.0 | 0.0 | 0.00 | 0.00 | 0.00 | 66 | 1015.0 |
| 20260509175539 | 68 | 135 | 0.0 | 0.0 | 0.00 | 0.00 | 0.00 | 65 | 1014.9 |
| 20260509175059 | 68 | 135 | 0.0 | 0.0 | 0.00 | 0.00 | 0.00 | 64 | 1014.9 |
| 20260509174544 | 69 | 135 | 0.0 | 0.0 | 0.00 | 0.00 | 0.00 | 63 | 1015.0 |
| 20260509174102 | 70 | 135 | 0.0 | 0.0 | 0.00 | 0.00 | 0.00 | 62 | 1015.1 |
| 20260509173537 | 71 | 135 | 0.0 | 0.0 | 0.00 | 0.00 | 0.00 | 61 | 1015.1 |
| 20260509173043 | 72 | 135 | 0.0 | 0.0 | 0.00 | 0.00 | 0.00 | 60 | 1015.0 |
| 20260509172537 | 73 | 135 | 0.0 | 0.0 | 0.00 | 0.00 | 0.00 | 59 | 1015.0 |
| 20260509172049 | 73 | 135 | 0.0 | 0.0 | 0.00 | 0.00 | 0.00 | 59 | 1014.9 |
| 20260509171556 | 73 | 135 | 0.0 | 0.0 | 0.00 | 0.00 | 0.00 | 60 | 1014.9 |
| 20260509171047 | 73 | 135 | 0.0 | 0.0 | 0.00 | 0.00 | 0.00 | 59 | 1014.9 |
| 20260509170544 | 73 | 135 | 0.0 | 0.0 | 0.00 | 0.00 | 0.00 | 59 | 1014.8 |
| 20260509170057 | 73 | 135 | 0.0 | 0.0 | 0.00 | 0.00 | 0.00 | 51 | 1014.8 |
| 20260509165542 | 73 | 135 | 0.0 | 0.0 | 0.00 | 0.00 | 0.00 | 56 | 1014.8 |
| 20260509165052 | 73 | 135 | 0.0 | 0.0 | 0.00 | 0.00 | 0.00 | 52 | 1014.8 |
| 20260509164543 | 73 | 135 | 0.0 | 0.0 | 0.00 | 0.00 | 0.00 | 51 | 1014.9 |
| 20260509164033 | 73 | 135 | 0.0 | 0.0 | 0.00 | 0.00 | 0.00 | 53 | 1014.9 |
| 20260509163538 | 73 | 135 | 0.0 | 0.0 | 0.00 | 0.00 | 0.00 | 53 | 1015.0 |
| 20260509163119 | 72 | 135 | 0.0 | 0.0 | 0.00 | 0.00 | 0.00 | 52 | 1015.0 |
| 20260509162532 | 72 | 135 | 0.0 | 0.0 | 0.00 | 0.00 | 0.00 | 52 | 1015.1 |
| 20260509162041 | 72 | 135 | 0.0 | 0.0 | 0.00 | 0.00 | 0.00 | 52 | 1015.2 |
| 20260509161547 | 72 | 135 | 0.0 | 0.0 | 0.00 | 0.00 | 0.00 | 50 | 1015.2 |
| 20260509161057 | 72 | 135 | 0.0 | 0.0 | 0.00 | 0.00 | 0.00 | 50 | 1015.3 |
| 20260509160536 | 73 | 135 | 0.0 | 2.0 | 0.00 | 0.00 | 0.00 | 52 | 1015.3 |
| 20260509160107 | 73 | 135 | 0.0 | 2.0 | 0.00 | 0.00 | 0.00 | 50 | 1015.3 |
| 20260509155547 | 74 | 135 | 0.0 | 0.0 | 0.00 | 0.00 | 0.00 | 51 | 1015.4 |
| 20260509155035 | 73 | 135 | 0.0 | 0.0 | 0.00 | 0.00 | 0.00 | 51 | 1015.4 |
| 20260509154540 | 73 | 135 | 0.0 | 0.0 | 0.00 | 0.00 | 0.00 | 52 | 1015.5 |
| 20260509154120 | 73 | 135 | 0.0 | 0.0 | 0.00 | 0.00 | 0.00 | 52 | 1015.5 |
| 20260509153537 | 73 | 135 | 0.0 | 0.0 | 0.00 | 0.00 | 0.00 | 53 | 1015.5 |
| 20260509153044 | 73 | 135 | 0.0 | 0.0 | 0.00 | 0.00 | 0.00 | 51 | 1015.6 |
| 20260509152547 | 73 | 135 | 0.0 | 0.0 | 0.00 | 0.00 | 0.00 | 51 | 1015.8 |
| 20260509152034 | 72 | 135 | 0.0 | 0.0 | 0.00 | 0.00 | 0.00 | 53 | 1015.9 |
| 20260509151541 | 72 | 135 | 0.0 | 1.0 | 0.00 | 0.00 | 0.00 | 54 | 1015.9 |
| 20260509151058 | 72 | 135 | 0.0 | 1.0 | 0.00 | 0.00 | 0.00 | 52 | 1015.9 |
| 20260509150533 | 73 | 133 | 0.0 | 0.0 | 0.00 | 0.00 | 0.00 | 55 | 1015.9 |
| 20260509150046 | 73 | 133 | 0.0 | 0.0 | 0.00 | 0.00 | 0.00 | 54 | 1015.9 |
| 20260509145552 | 73 | 129 | 0.0 | 0.0 | 0.00 | 0.00 | 0.00 | 53 | 1015.9 |
| 20260509145039 | 73 | 128 | 0.0 | 0.0 | 0.00 | 0.00 | 0.00 | 54 | 1015.9 |
| 20260509144546 | 73 | 129 | 0.0 | 0.0 | 0.00 | 0.00 | 0.00 | 53 | 1015.9 |
| 20260509144042 | 72 | 129 | 0.0 | 0.0 | 0.00 | 0.00 | 0.00 | 55 | 1015.9 |
| 20260509143547 | 72 | 128 | 0.0 | 0.0 | 0.00 | 0.00 | 0.00 | 54 | 1015.9 |
| 20260509143034 | 72 | 128 | 0.0 | 0.0 | 0.00 | 0.00 | 0.00 | 53 | 1015.9 |
| 20260509142539 | 72 | 128 | 0.0 | 0.0 | 0.00 | 0.00 | 0.00 | 53 | 1015.9 |
| 20260509142057 | 72 | 147 | 0.0 | 2.0 | 0.00 | 0.00 | 0.00 | 55 | 1015.9 |
| 20260509141534 | 72 | 161 | 0.0 | 5.0 | 0.00 | 0.00 | 0.00 | 53 | 1016.0 |
| 20260509141111 | 72 | 140 | 3.0 | 5.0 | 0.00 | 0.00 | 0.00 | 52 | 1016.1 |
| 20260509140533 | 72 | 183 | 0.0 | 6.0 | 0.00 | 0.00 | 0.00 | 54 | 1016.1 |
| 20260509140042 | 72 | 178 | 1.0 | 7.0 | 0.00 | 0.00 | 0.00 | 55 | 1016.2 |
| 20260509135606 | 73 | 141 | 4.0 | 7.0 | 0.00 | 0.00 | 0.00 | 54 | 1016.2 |
| 20260509135033 | 73 | 124 | 0.0 | 3.0 | 0.00 | 0.00 | 0.00 | 56 | 1016.3 |
| 20260509134538 | 73 | 113 | 0.0 | 6.0 | 0.00 | 0.00 | 0.00 | 55 | 1016.4 |
| 20260509134117 | 73 | 97 | 1.0 | 6.0 | 0.00 | 0.00 | 0.00 | 54 | 1016.4 |
| 20260509133531 | 72 | 81 | 2.0 | 6.0 | 0.00 | 0.00 | 0.00 | 56 | 1016.3 |
| 20260509133039 | 72 | 119 | 2.0 | 7.0 | 0.00 | 0.00 | 0.00 | 58 | 1016.3 |
| 20260509132541 | 72 | 172 | 0.0 | 6.0 | 0.00 | 0.00 | 0.00 | 56 | 1016.4 |
| 20260509132031 | 72 | 138 | 1.0 | 6.0 | 0.00 | 0.00 | 0.00 | 58 | 1016.5 |
| 20260509131535 | 72 | 152 | 0.0 | 1.0 | 0.00 | 0.00 | 0.00 | 57 | 1016.6 |
| 20260509131040 | 71 | 152 | 0.0 | 8.0 | 0.00 | 0.00 | 0.00 | 59 | 1016.7 |
| 20260509130601 | 71 | 74 | 1.0 | 8.0 | 0.00 | 0.00 | 0.00 | 59 | 1016.7 |
| 20260509130033 | 70 | 139 | 5.0 | 8.0 | 0.00 | 0.04 | 0.00 | 59 | 1016.7 |
| 20260509125538 | 70 | 64 | 0.0 | 8.0 | 0.00 | 0.04 | 0.00 | 60 | 1016.8 |
| 20260509125036 | 70 | 141 | 3.0 | 9.0 | 0.00 | 0.04 | 0.00 | 60 | 1016.8 |
| 20260509124600 | 70 | 83 | 1.0 | 11.0 | 0.00 | 0.04 | 0.00 | 59 | 1016.9 |
| 20260509124051 | 70 | 160 | 1.0 | 8.0 | 0.00 | 0.04 | 0.00 | 61 | 1016.9 |
| 20260509123545 | 70 | 125 | 0.0 | 9.0 | 0.00 | 0.04 | 0.00 | 60 | 1017.0 |
| 20260509123044 | 70 | 122 | 0.0 | 9.0 | 0.00 | 0.04 | 0.00 | 60 | 1017.0 |
| 20260509122545 | 70 | 142 | 1.0 | 8.0 | 0.00 | 0.04 | 0.00 | 62 | 1017.0 |
| 20260509122054 | 70 | 119 | 1.0 | 8.0 | 0.00 | 0.04 | 0.00 | 60 | 1017.1 |
| 20260509121538 | 70 | 149 | 3.0 | 8.0 | 0.00 | 0.04 | 0.00 | 59 | 1017.1 |
| 20260509121120 | 70 | 135 | 0.0 | 3.0 | 0.00 | 0.04 | 0.00 | 62 | 1017.1 |
| 20260509120535 | 70 | 136 | 0.0 | 13.0 | 0.00 | 0.04 | 0.00 | 62 | 1017.1 |
| 20260509120053 | 70 | 133 | 7.0 | 13.0 | 0.00 | 0.08 | 0.00 | 60 | 1017.1 |
| 20260509115535 | 71 | 151 | 0.0 | 10.0 | 0.00 | 0.08 | 0.00 | 63 | 1017.1 |
| 20260509115034 | 70 | 142 | 2.0 | 8.0 | 0.00 | 0.08 | 0.00 | 63 | 1017.1 |
| 20260509114539 | 70 | 112 | 2.0 | 10.0 | 0.00 | 0.08 | 0.00 | 61 | 1017.2 |
| 20260509114031 | 70 | 143 | 3.0 | 10.0 | 0.00 | 0.08 | 0.00 | 61 | 1017.2 |
| 20260509113535 | 70 | 127 | 2.0 | 11.0 | 0.00 | 0.08 | 0.00 | 60 | 1017.2 |
| 20260509113045 | 70 | 137 | 7.0 | 11.0 | 0.00 | 0.08 | 0.00 | 60 | 1017.2 |
| 20260509112547 | 70 | 145 | 3.0 | 11.0 | 0.00 | 0.08 | 0.00 | 63 | 1017.3 |
| 20260509112059 | 71 | 132 | 4.0 | 11.0 | 0.00 | 0.08 | 0.00 | 61 | 1017.3 |
| 20260509111543 | 71 | 85 | 2.0 | 8.0 | 0.00 | 0.08 | 0.00 | 61 | 1017.3 |
| 20260509111033 | 70 | 168 | 3.0 | 8.0 | 0.00 | 0.08 | 0.00 | 64 | 1017.4 |
| 20260509110534 | 70 | 140 | 4.0 | 9.0 | 0.00 | 0.08 | 0.00 | 63 | 1017.5 |
| 20260509110042 | 70 | 114 | 4.0 | 9.0 | 0.00 | 0.08 | 0.00 | 63 | 1017.4 |
| 20260509105543 | 70 | 146 | 6.0 | 9.0 | 0.00 | 0.08 | 0.00 | 63 | 1017.4 |
| 20260509105053 | 70 | 56 | 0.0 | 3.0 | 0.00 | 0.08 | 0.00 | 64 | 1017.5 |
| 20260509104536 | 69 | 43 | 0.0 | 9.0 | 0.00 | 0.08 | 0.00 | 65 | 1017.6 |
| 20260509104045 | 69 | 177 | 4.0 | 9.0 | 0.00 | 0.08 | 0.00 | 65 | 1017.6 |
| 20260509103547 | 69 | 139 | 0.0 | 8.0 | 0.00 | 0.08 | 0.00 | 66 | 1017.7 |
| 20260509103059 | 69 | 104 | 1.0 | 8.0 | 0.00 | 0.08 | 0.00 | 67 | 1017.7 |
| 20260509102535 | 69 | 168 | 1.0 | 6.0 | 0.00 | 0.08 | 0.00 | 68 | 1017.8 |
| 20260509102040 | 69 | 335 | 0.0 | 10.0 | 0.00 | 0.08 | 0.00 | 66 | 1017.9 |
| 20260509101604 | 69 | 142 | 2.0 | 10.0 | 0.00 | 0.08 | 0.00 | 68 | 1017.9 |
| 20260509101038 | 68 | 117 | 2.0 | 7.0 | 0.00 | 0.08 | 0.00 | 69 | 1017.9 |
| 20260509100541 | 68 | 155 | 1.0 | 7.0 | 0.00 | 0.08 | 0.00 | 68 | 1018.0 |
| 20260509100116 | 68 | 177 | 3.0 | 9.0 | 0.00 | 0.08 | 0.00 | 68 | 1018.0 |
| 20260509095545 | 68 | 133 | 5.0 | 9.0 | 0.00 | 0.08 | 0.00 | 67 | 1018.1 |
| 20260509095034 | 68 | 153 | 0.0 | 7.0 | 0.00 | 0.08 | 0.00 | 69 | 1018.1 |
| 20260509094539 | 68 | 125 | 0.0 | 6.0 | 0.00 | 0.08 | 0.00 | 67 | 1018.2 |
| 20260509094047 | 68 | 118 | 0.0 | 6.0 | 0.00 | 0.08 | 0.00 | 70 | 1018.2 |
| 20260509093551 | 68 | 181 | 0.0 | 6.0 | 0.00 | 0.08 | 0.00 | 69 | 1018.2 |
| 20260509093040 | 67 | 65 | 0.0 | 6.0 | 0.00 | 0.08 | 0.00 | 68 | 1018.2 |
| 20260509092545 | 67 | 149 | 3.0 | 6.0 | 0.00 | 0.08 | 0.00 | 71 | 1018.2 |
| 20260509092036 | 67 | 129 | 1.0 | 4.0 | 0.00 | 0.08 | 0.00 | 71 | 1018.2 |
| 20260509091541 | 67 | 125 | 0.0 | 6.0 | 0.00 | 0.08 | 0.00 | 70 | 1018.3 |
| 20260509091051 | 67 | 97 | 3.0 | 8.0 | 0.00 | 0.08 | 0.00 | 70 | 1018.3 |
| 20260509090538 | 67 | 113 | 4.0 | 8.0 | 0.00 | 0.08 | 0.00 | 69 | 1018.3 |
| 20260509090045 | 67 | 166 | 1.0 | 7.0 | 0.00 | 0.08 | 0.00 | 70 | 1018.2 |
| 20260509085605 | 67 | 99 | 1.0 | 5.0 | 0.00 | 0.08 | 0.00 | 71 | 1018.3 |
| 20260509085031 | 66 | 164 | 0.0 | 5.0 | 0.00 | 0.08 | 0.00 | 69 | 1018.3 |
| 20260509084534 | 66 | 130 | 0.0 | 4.0 | 0.00 | 0.08 | 0.00 | 69 | 1018.4 |
| 20260509084045 | 66 | 97 | 1.0 | 5.0 | 0.00 | 0.08 | 0.00 | 69 | 1018.4 |
| 20260509083547 | 66 | 158 | 0.0 | 5.0 | 0.00 | 0.08 | 0.00 | 71 | 1018.4 |
| 20260509083055 | 65 | 96 | 1.0 | 7.0 | 0.00 | 0.08 | 0.00 | 71 | 1018.4 |
| 20260509082530 | 65 | 128 | 3.0 | 7.0 | 0.00 | 0.08 | 0.00 | 69 | 1018.4 |
| 20260509082039 | 65 | 133 | 0.0 | 0.0 | 0.00 | 0.08 | 0.00 | 69 | 1018.4 |
| 20260509081540 | 64 | 153 | 0.0 | 0.0 | 0.00 | 0.08 | 0.00 | 70 | 1018.4 |
| 20260509081058 | 64 | 159 | 0.0 | 5.0 | 0.00 | 0.08 | 0.00 | 71 | 1018.5 |
| 20260509080539 | 63 | 162 | 2.0 | 6.0 | 0.00 | 0.08 | 0.00 | 70 | 1018.6 |
| 20260509080031 | 63 | 160 | 3.0 | 6.0 | 0.00 | 0.08 | 0.00 | 72 | 1018.6 |
| 20260509075535 | 63 | 174 | 0.0 | 3.0 | 0.00 | 0.08 | 0.00 | 73 | 1018.6 |
| 20260509075046 | 63 | 170 | 1.0 | 7.0 | 0.00 | 0.08 | 0.00 | 75 | 1018.5 |
| 20260509074605 | 62 | 152 | 2.0 | 7.0 | 0.00 | 0.08 | 0.00 | 78 | 1018.4 |
| 20260509074033 | 62 | 152 | 1.0 | 4.0 | 0.00 | 0.08 | 0.00 | 76 | 1018.4 |
| 20260509073535 | 62 | 158 | 2.0 | 5.0 | 0.00 | 0.08 | 0.00 | 76 | 1018.4 |